Time;durP1;ratioP1;P1;durP2;ratioP2;P2;SDS_P1;SDS_P2;PMS_P1;PMS_P2;Temp;Humidity;BMP_temperature;BMP_pressure;BME280_temperature;BME280_humidity;BME280_pressure;Samples;Min_cycle;Max_cycle;Signal;HPM_P1;HPM_P2
2021/01/03 00:01:11;;;;;;;36.83;18.92;;;4.50;1.00;;;;;;5091608;28;20191;-64
2021/01/03 00:03:38;;;;;;;38.33;20.00;;;4.60;1.00;;;;;;5075217;28;20181;-64
2021/01/03 00:06:08;;;;;;;31.50;15.80;;;4.50;1.00;;;;;;5076565;28;20207;-64
2021/01/03 00:08:34;;;;;;;38.30;19.40;;;4.70;1.00;;;;;;5076553;28;20199;-64
2021/01/03 00:11:00;;;;;;;34.00;17.93;;;4.60;1.00;;;;;;5076678;28;20613;-64
2021/01/03 00:13:25;;;;;;;38.53;17.10;;;4.70;1.00;;;;;;5076346;28;21188;-64
2021/01/03 00:15:51;;;;;;;40.47;19.63;;;4.60;1.00;;;;;;5076511;28;20208;-64
2021/01/03 00:18:16;;;;;;;38.97;19.87;;;4.80;1.00;;;;;;5076239;28;20173;-64
2021/01/03 00:20:42;;;;;;;35.70;17.87;;;4.80;1.00;;;;;;5076517;28;20200;-64
2021/01/03 00:23:07;;;;;;;41.50;18.87;;;4.80;1.00;;;;;;5076101;28;20173;-64
2021/01/03 00:25:33;;;;;;;33.63;18.30;;;4.70;1.00;;;;;;5076226;28;20255;-64
2021/01/03 00:28:00;;;;;;;40.67;18.73;;;4.60;1.00;;;;;;5076033;28;20627;-64
2021/01/03 00:30:27;;;;;;;37.35;17.85;;;4.80;1.00;;;;;;5076381;28;20427;-64
2021/01/03 00:32:54;;;;;;;36.55;18.73;;;4.80;1.00;;;;;;5076302;28;20187;-64
2021/01/03 00:35:26;;;;;;;33.97;17.83;;;4.90;1.00;;;;;;5075748;28;20303;-64
2021/01/03 00:37:52;;;;;;;41.00;21.17;;;4.90;1.00;;;;;;5076074;28;20181;-64
2021/01/03 00:40:20;;;;;;;36.20;19.33;;;5.10;1.00;;;;;;5075823;28;20176;-64
2021/01/03 00:42:46;;;;;;;40.78;21.33;;;4.90;1.00;;;;;;5075776;28;20564;-64
2021/01/03 00:45:12;;;;;;;35.47;17.77;;;5.00;1.00;;;;;;5075615;28;20216;-64
2021/01/03 00:47:38;;;;;;;52.22;19.27;;;5.20;1.00;;;;;;5075764;28;20275;-64
2021/01/03 00:50:07;;;;;;;35.93;20.30;;;5.30;1.00;;;;;;5075217;28;20259;-64
2021/01/03 00:52:32;;;;;;;37.30;18.52;;;5.20;1.00;;;;;;5075462;28;20446;-64
2021/01/03 00:54:58;;;;;;;40.70;19.27;;;5.10;99.90;;;;;;5075432;28;20208;-64
2021/01/03 00:57:24;;;;;;;39.30;20.30;;;4.90;1.00;;;;;;5075793;28;20184;-64
2021/01/03 00:59:49;;;;;;;44.33;19.43;;;5.10;1.00;;;;;;5075315;28;20196;-64
2021/01/03 01:02:15;;;;;;;38.93;18.00;;;5.00;1.00;;;;;;5075443;28;20531;-64
2021/01/03 01:04:40;;;;;;;36.13;17.50;;;4.80;1.00;;;;;;5075322;28;20206;-64
2021/01/03 01:07:06;;;;;;;39.27;20.53;;;4.90;1.00;;;;;;5075337;28;20518;-64
2021/01/03 01:09:31;;;;;;;39.93;18.83;;;5.00;1.00;;;;;;5075346;28;20267;-64
2021/01/03 01:11:57;;;;;;;37.10;19.37;;;5.00;1.00;;;;;;5075380;28;20207;-64
2021/01/03 01:14:23;;;;;;;37.50;20.27;;;5.10;1.00;;;;;;5074063;28;20234;-64
2021/01/03 01:16:49;;;;;;;43.30;20.27;;;5.00;1.00;;;;;;5074388;28;20195;-64
2021/01/03 01:19:15;;;;;;;45.43;19.87;;;4.90;1.00;;;;;;5075231;28;20605;-64
2021/01/03 01:21:40;;;;;;;43.53;21.03;;;5.00;1.00;;;;;;5074865;28;20199;-65
2021/01/03 01:24:07;;;;;;;46.70;23.90;;;4.90;1.00;;;;;;5074726;28;20431;-64
2021/01/03 01:26:32;;;;;;;43.70;23.20;;;4.80;1.00;;;;;;5075010;28;20176;-64
2021/01/03 01:28:58;;;;;;;44.17;21.57;;;4.80;1.00;;;;;;5075147;28;20177;-64
2021/01/03 01:31:23;;;;;;;49.43;22.23;;;5.00;1.00;;;;;;5074945;28;20184;-64
2021/01/03 01:33:49;;;;;;;37.07;21.00;;;5.30;1.00;;;;;;5074825;28;20185;-65
2021/01/03 01:36:14;;;;;;;42.93;22.07;;;5.30;1.00;;;;;;5075457;28;20191;-64
2021/01/03 01:38:40;;;;;;;40.57;21.10;;;5.50;1.00;;;;;;5075510;28;20177;-64
2021/01/03 01:41:05;;;;;;;35.10;19.40;;;5.60;1.00;;;;;;5075288;28;20177;-64
2021/01/03 01:43:31;;;;;;;35.83;19.70;;;5.40;1.00;;;;;;5074600;28;20655;-64
2021/01/03 01:45:58;;;;;;;43.03;19.67;;;5.50;1.00;;;;;;5074604;28;20204;-64
2021/01/03 01:48:29;;;;;;;40.83;20.25;;;5.20;99.90;;;;;;5073577;28;20434;-64
2021/01/03 01:51:13;;;;;;;41.88;20.33;;;4.90;1.00;;;;;;5074452;28;20184;-64
2021/01/03 01:53:59;;;;;;;35.15;18.73;;;5.00;1.00;;;;;;5074275;28;20631;-64
2021/01/03 01:56:48;;;;;;;47.08;19.27;;;5.10;1.00;;;;;;5074500;28;20227;-64
2021/01/03 01:59:28;;;;;;;41.63;20.35;;;5.20;1.00;;;;;;5074375;28;20179;-64
2021/01/03 02:02:00;;;;;;;42.28;19.20;;;5.30;1.00;;;;;;5073384;28;20520;-64
2021/01/03 02:04:35;;;;;;;39.47;19.92;;;5.20;1.00;;;;;;5074087;28;20176;-64
2021/01/03 02:07:20;;;;;;;41.40;20.55;;;5.10;1.00;;;;;;5073348;28;20299;-64
2021/01/03 02:10:16;;;;;;;38.45;20.15;;;5.40;1.00;;;;;;5074201;28;20180;-65
2021/01/03 02:12:45;;;;;;;46.85;21.98;;;5.40;1.00;;;;;;5074212;28;20605;-64
2021/01/03 02:15:27;;;;;;;43.15;20.10;;;5.30;1.00;;;;;;5074261;28;20488;-64
2021/01/03 02:17:54;;;;;;;38.92;19.85;;;5.30;1.00;;;;;;5074352;28;20248;-64
2021/01/03 02:20:20;;;;;;;39.30;19.00;;;4.90;1.00;;;;;;5074106;28;20652;-64
2021/01/03 02:23:02;;;;;;;39.55;20.50;;;4.90;1.00;;;;;;5073167;28;20208;-64
2021/01/03 02:25:28;;;;;;;43.65;21.48;;;5.00;1.00;;;;;;5073906;28;20184;-64
2021/01/03 02:28:07;;;;;;;40.85;20.38;;;5.30;1.00;;;;;;5074351;28;20486;-64
2021/01/03 02:30:33;;;;;;;42.28;19.33;;;5.40;1.00;;;;;;5073893;28;20176;-65
2021/01/03 02:33:14;;;;;;;42.95;19.95;;;5.20;1.00;;;;;;5074062;28;20664;-64
2021/01/03 02:35:43;;;;;;;36.88;18.40;;;5.40;1.00;;;;;;5073829;28;20208;-64
2021/01/03 02:38:08;;;;;;;40.67;19.88;;;5.10;1.00;;;;;;5072910;28;20176;-64
2021/01/03 02:40:34;;;;;;;43.67;20.80;;;5.10;1.00;;;;;;5073889;28;20183;-64
2021/01/03 02:43:00;;;;;;;37.90;18.80;;;4.80;1.00;;;;;;5073944;28;20180;-64
2021/01/03 02:45:29;;;;;;;42.57;21.80;;;5.00;1.00;;;;;;5074061;28;20226;-64
2021/01/03 02:48:01;;;;;;;34.60;19.38;;;5.20;1.00;;;;;;5074006;28;20211;-64
2021/01/03 02:50:27;;;;;;;41.28;19.08;;;5.00;1.00;;;;;;5073872;28;20543;-60
2021/01/03 02:52:53;;;;;;;36.10;19.53;;;4.90;1.00;;;;;;5073947;28;20242;-64
2021/01/03 02:55:20;;;;;;;46.37;19.30;;;4.80;1.00;;;;;;5073525;28;20569;-63
2021/01/03 02:57:46;;;;;;;43.78;19.58;;;4.80;1.00;;;;;;5073684;28;20887;-64
2021/01/03 03:00:22;;;;;;;42.60;20.27;;;5.00;1.00;;;;;;5073620;28;20670;-61
2021/01/03 03:02:49;;;;;;;41.53;20.35;;;4.80;1.00;;;;;;5073784;28;20505;-60
2021/01/03 03:05:15;;;;;;;41.50;20.45;;;5.00;1.00;;;;;;5073460;28;20184;-64
2021/01/03 03:07:40;;;;;;;42.78;19.55;;;4.70;1.00;;;;;;5073479;28;20173;-64
2021/01/03 03:10:07;;;;;;;42.67;17.63;;;4.50;1.00;;;;;;5073946;28;20628;-63
2021/01/03 03:12:32;;;;;;;39.28;17.92;;;4.70;1.00;;;;;;5072627;28;20201;-64
2021/01/03 03:14:58;;;;;;;37.80;17.70;;;4.90;1.00;;;;;;5073280;28;20222;-60
2021/01/03 03:17:23;;;;;;;44.13;20.57;;;4.70;1.00;;;;;;5073321;28;20219;-63
2021/01/03 03:19:49;;;;;;;38.17;18.03;;;4.60;1.00;;;;;;5073488;28;20177;-60
2021/01/03 03:22:14;;;;;;;38.87;20.10;;;4.60;1.00;;;;;;5073512;28;20181;-62
2021/01/03 03:24:40;;;;;;;39.47;19.27;;;4.40;1.00;;;;;;5073411;28;20242;-62
2021/01/03 03:27:05;;;;;;;43.03;20.33;;;4.50;1.00;;;;;;5073523;28;20188;-61
2021/01/03 03:29:31;;;;;;;40.23;18.87;;;4.30;1.00;;;;;;5073496;28;20177;-62
2021/01/03 03:31:57;;;;;;;44.20;17.80;;;4.40;1.00;;;;;;5073586;28;20227;-62
2021/01/03 03:34:24;;;;;;;47.50;19.75;;;4.50;1.00;;;;;;5073467;28;20211;-61
2021/01/03 03:36:54;;;;;;;41.72;18.38;;;4.60;1.00;;;;;;5074114;28;20169;-61
2021/01/03 03:39:20;;;;;;;42.30;19.77;;;4.70;1.00;;;;;;5077227;28;20176;-61
2021/01/03 03:41:46;;;;;;;42.58;19.63;;;4.90;1.00;;;;;;5077256;28;20177;-61
2021/01/03 03:44:11;;;;;;;41.97;18.47;;;5.10;1.00;;;;;;5076986;28;20194;-60
2021/01/03 03:46:37;;;;;;;39.07;18.30;;;4.70;1.00;;;;;;5076910;28;20267;-60
2021/01/03 03:49:03;;;;;;;41.67;21.70;;;4.60;1.00;;;;;;5076950;28;20262;-63
2021/01/03 03:51:28;;;;;;;47.73;19.33;;;4.80;1.00;;;;;;5076835;28;20203;-62
2021/01/03 03:53:54;;;;;;;41.77;17.47;;;4.90;1.00;;;;;;5076384;28;20270;-63
2021/01/03 03:56:19;;;;;;;33.40;18.33;;;4.50;1.00;;;;;;5077069;28;20207;-62
2021/01/03 03:58:45;;;;;;;41.80;20.30;;;4.50;1.00;;;;;;5076750;28;20187;-62
2021/01/03 04:01:11;;;;;;;41.47;18.77;;;4.50;1.00;;;;;;5076638;28;20203;-62
2021/01/03 04:03:37;;;;;;;43.15;19.13;;;4.20;1.00;;;;;;5076347;28;20238;-62
2021/01/03 04:06:03;;;;;;;39.90;17.20;;;4.10;1.00;;;;;;5076555;28;20185;-62
2021/01/03 04:08:29;;;;;;;36.53;17.73;;;4.00;1.00;;;;;;5076493;28;20183;-62
2021/01/03 04:10:55;;;;;;;47.23;19.90;;;4.20;1.00;;;;;;5075689;28;20184;-60
2021/01/03 04:13:21;;;;;;;41.60;19.85;;;4.10;1.00;;;;;;5076083;28;20922;-60
2021/01/03 04:15:46;;;;;;;46.73;19.50;;;4.10;1.00;;;;;;5076317;28;20239;-60
2021/01/03 04:18:12;;;;;;;39.23;19.20;;;4.30;1.00;;;;;;5076434;28;20237;-60
2021/01/03 04:20:38;;;;;;;38.43;17.23;;;4.40;1.00;;;;;;5076234;28;20544;-64
2021/01/03 04:23:11;;;;;;;46.10;22.50;;;4.20;1.00;;;;;;5076111;28;20187;-64
2021/01/03 04:25:37;;;;;;;40.75;19.20;;;4.20;1.00;;;;;;5077462;28;20431;-60
2021/01/03 04:28:03;;;;;;;46.17;20.40;;;4.20;1.00;;;;;;5076333;28;20185;-60
2021/01/03 04:30:28;;;;;;;40.93;18.30;;;4.30;1.00;;;;;;5076284;28;20199;-64
2021/01/03 04:32:54;;;;;;;34.90;17.30;;;4.60;1.00;;;;;;5076030;28;20223;-64
2021/01/03 04:35:22;;;;;;;43.60;18.43;;;4.10;1.00;;;;;;5076121;28;20637;-60
2021/01/03 04:37:51;;;;;;;40.05;18.88;;;4.30;1.00;;;;;;5076359;28;20237;-60
2021/01/03 04:40:21;;;;;;;36.35;17.35;;;4.20;1.00;;;;;;5075884;28;20173;-64
2021/01/03 04:42:53;;;;;;;37.17;18.25;;;4.20;1.00;;;;;;5075923;28;20185;-62
2021/01/03 04:45:40;;;;;;;37.25;17.80;;;4.10;1.00;;;;;;5075668;28;20177;-60
2021/01/03 04:48:29;;;;;;;35.17;16.40;;;4.10;1.00;;;;;;5075530;28;20648;-64
2021/01/03 04:51:32;;;;;;;32.33;16.15;;;4.10;1.00;;;;;;5074676;28;20184;-60
2021/01/03 04:54:17;;;;;;;34.45;16.38;;;4.10;1.00;;;;;;5075246;28;20237;-60
2021/01/03 04:56:42;;;;;;;28.40;15.18;;;4.10;1.00;;;;;;5075594;28;20182;-60
2021/01/03 04:59:31;;;;;;;30.20;14.90;;;4.30;1.00;;;;;;5075509;28;20177;-64
2021/01/03 05:02:15;;;;;;;33.60;16.48;;;4.20;1.00;;;;;;5075381;28;20210;-64
2021/01/03 05:04:56;;;;;;;31.77;15.70;;;4.10;1.00;;;;;;5075125;28;20183;-64
2021/01/03 05:07:29;;;;;;;28.42;14.73;;;4.30;1.00;;;;;;5075468;28;20229;-64
2021/01/03 05:10:09;;;;;;;28.60;13.57;;;4.30;1.00;;;;;;5075389;28;20199;-64
2021/01/03 05:12:58;;;;;;;30.58;14.00;;;4.50;1.00;;;;;;5074274;28;20192;-64
2021/01/03 05:15:29;;;;;;;26.73;13.38;;;4.10;1.00;;;;;;5074791;28;20333;-64
2021/01/03 05:17:54;;;;;;;31.33;16.05;;;4.20;1.00;;;;;;5075411;28;20168;-64
2021/01/03 05:20:20;;;;;;;25.77;12.73;;;4.00;1.00;;;;;;5075075;28;20173;-64
2021/01/03 05:22:46;;;;;;;28.90;12.90;;;4.10;1.00;;;;;;5075005;28;20172;-64
2021/01/03 05:25:14;;;;;;;27.45;13.38;;;3.90;1.00;;;;;;5074735;28;20176;-64
2021/01/03 05:27:40;;;;;;;24.45;11.88;;;4.10;1.00;;;;;;5074893;28;20173;-64
2021/01/03 05:30:18;;;;;;;26.80;12.88;;;4.10;1.00;;;;;;5074086;28;20294;-62
2021/01/03 05:32:44;;;;;;;23.38;11.45;;;4.00;1.00;;;;;;5074915;28;20190;-62
2021/01/03 05:35:22;;;;;;;22.20;10.57;;;4.00;1.00;;;;;;5075093;28;20524;-60
2021/01/03 05:37:50;;;;;;;21.73;11.43;;;4.30;1.00;;;;;;5075190;28;20173;-60
2021/01/03 05:40:40;;;;;;;19.65;10.63;;;4.40;1.00;;;;;;5075094;28;20173;-64
2021/01/03 05:43:11;;;;;;;16.17;9.25;;;4.40;1.00;;;;;;5069277;28;20220;-64
2021/01/03 05:46:00;;;;;;;22.83;10.15;;;4.50;1.00;;;;;;5074541;28;20180;-64
2021/01/03 05:48:32;;;;;;;24.35;12.35;;;4.40;99.90;;;;;;5067069;28;20572;-64
2021/01/03 05:50:57;;;;;;;22.38;11.50;;;4.20;1.00;;;;;;5074615;28;20499;-64
2021/01/03 05:53:26;;;;;;;19.10;10.83;;;4.30;1.00;;;;;;5074258;28;20256;-65
2021/01/03 05:56:02;;;;;;;18.83;10.93;;;4.40;1.00;;;;;;5074356;28;20246;-64
2021/01/03 05:58:33;;;;;;;21.13;10.55;;;4.30;1.00;;;;;;5074327;28;20243;-64
2021/01/03 06:01:30;;;;;;;16.55;8.45;;;4.40;1.00;;;;;;5073649;28;20279;-64
2021/01/03 06:04:19;;;;;;;18.33;9.48;;;4.50;1.00;;;;;;5074030;28;20283;-64
2021/01/03 06:06:50;;;;;;;17.50;9.73;;;4.40;99.90;;;;;;5074101;28;20211;-64
2021/01/03 06:09:23;;;;;;;22.05;10.75;;;4.40;1.00;;;;;;5074113;28;20180;-64
2021/01/03 06:12:02;;;;;;;20.63;11.10;;;4.40;1.00;;;;;;5074040;28;20173;-64
2021/01/03 06:14:28;;;;;;;20.63;10.95;;;4.40;1.00;;;;;;5073822;28;20200;-64
2021/01/03 06:17:04;;;;;;;17.83;10.48;;;4.50;1.00;;;;;;5074049;28;20194;-64
2021/01/03 06:19:36;;;;;;;17.63;9.88;;;4.60;1.00;;;;;;5074051;28;20184;-64
2021/01/03 06:22:10;;;;;;;18.83;10.52;;;4.60;1.00;;;;;;5074024;28;20658;-64
2021/01/03 06:24:40;;;;;;;23.13;10.45;;;4.30;1.00;;;;;;5072777;28;20644;-64
2021/01/03 06:27:18;;;;;;;17.33;10.38;;;4.40;1.00;;;;;;5073696;28;20612;-64
2021/01/03 06:30:03;;;;;;;19.83;10.13;;;4.40;1.00;;;;;;5073830;28;20501;-64
2021/01/03 06:32:43;;;;;;;19.13;10.57;;;4.40;1.00;;;;;;5073843;28;20185;-64
2021/01/03 06:35:21;;;;;;;19.02;10.23;;;4.50;1.00;;;;;;5073597;28;20203;-64
2021/01/03 06:37:58;;;;;;;19.08;11.32;;;4.50;1.00;;;;;;5073935;28;20211;-64
2021/01/03 06:41:00;;;;;;;21.02;10.48;;;4.50;1.00;;;;;;5073883;28;20206;-64
2021/01/03 06:44:02;;;;;;;19.15;11.60;;;4.20;1.00;;;;;;5051965;28;20287;-64
2021/01/03 06:46:51;;;;;;;17.50;12.20;;;4.20;1.00;;;;;;5073789;28;20251;-64
2021/01/03 06:49:54;;;;;;;18.08;10.07;;;4.50;1.00;;;;;;5068161;28;20249;-64
2021/01/03 06:52:38;;;;;;;15.75;9.32;;;4.50;1.00;;;;;;5073610;28;20230;-64
2021/01/03 06:55:25;;;;;;;18.88;11.40;;;4.70;1.00;;;;;;5073246;28;20540;-64
2021/01/03 06:58:38;;;;;;;17.70;10.90;;;4.60;1.00;;;;;;5073521;28;20230;-63
2021/01/03 07:01:32;;;;;;;19.42;11.45;;;4.80;1.00;;;;;;5031546;28;20218;-59
2021/01/03 07:04:00;;;;;;;19.52;12.38;;;4.40;1.00;;;;;;5031668;28;20522;-61
2021/01/03 07:06:34;;;;;;;17.17;11.05;;;4.40;1.00;;;;;;5062346;28;20630;-64
2021/01/03 07:09:12;;;;;;;17.15;9.75;;;4.50;1.00;;;;;;5073505;28;20203;-64
2021/01/03 07:11:51;;;;;;;16.60;9.63;;;4.50;1.00;;;;;;5073646;28;20172;-64
2021/01/03 07:14:22;;;;;;;15.02;9.52;;;4.30;1.00;;;;;;5077134;28;20200;-64
2021/01/03 07:17:00;;;;;;;19.30;9.00;;;4.30;1.00;;;;;;5077454;28;20183;-64
2021/01/03 07:19:33;;;;;;;17.60;9.85;;;4.20;1.00;;;;;;5077371;28;20251;-64
2021/01/03 07:22:12;;;;;;;16.20;9.02;;;4.50;1.00;;;;;;5077470;28;20598;-64
2021/01/03 07:25:00;;;;;;;16.25;9.50;;;4.40;1.00;;;;;;5077116;28;20342;-64
2021/01/03 07:27:43;;;;;;;17.95;9.25;;;4.60;1.00;;;;;;5077177;28;20184;-64
2021/01/03 07:30:08;;;;;;;18.65;9.75;;;4.40;1.00;;;;;;5076223;28;20200;-64
2021/01/03 07:32:37;;;;;;;15.20;8.67;;;4.40;1.00;;;;;;5077271;28;20173;-65
2021/01/03 07:35:27;;;;;;;17.83;10.80;;;4.20;1.00;;;;;;5076664;28;20269;-64
2021/01/03 07:38:15;;;;;;;17.67;8.95;;;4.30;1.00;;;;;;5077070;28;20177;-64
2021/01/03 07:41:00;;;;;;;15.10;9.63;;;4.60;1.00;;;;;;5076990;28;20265;-64
2021/01/03 07:43:26;;;;;;;17.27;10.32;;;4.60;1.00;;;;;;5076748;28;20199;-64
2021/01/03 07:45:52;;;;;;;13.77;8.37;;;4.60;1.00;;;;;;5077189;28;20224;-64
2021/01/03 07:48:34;;;;;;;15.43;8.18;;;4.50;1.00;;;;;;5077054;28;20184;-60
2021/01/03 07:51:00;;;;;;;13.50;7.97;;;4.40;1.00;;;;;;5076896;28;20194;-64
2021/01/03 07:53:37;;;;;;;14.20;8.93;;;4.40;1.00;;;;;;5076550;28;20223;-64
2021/01/03 07:56:27;;;;;;;13.80;8.90;;;4.50;1.00;;;;;;5076823;28;20663;-64
2021/01/03 07:58:58;;;;;;;13.52;8.50;;;4.50;99.90;;;;;;5092540;28;20604;-61
2021/01/03 08:01:29;;;;;;;11.88;7.70;;;4.30;99.90;;;;;;5076913;28;20180;-61
2021/01/03 08:03:55;;;;;;;18.13;10.52;;;4.20;99.90;;;;;;5076309;28;20173;-61
2021/01/03 08:06:20;;;;;;;12.63;7.67;;;4.20;1.00;;;;;;5076546;28;20212;-62
2021/01/03 08:08:55;;;;;;;14.23;8.53;;;4.40;1.00;;;;;;5076446;28;20188;-62
2021/01/03 08:11:35;;;;;;;17.33;9.35;;;4.50;99.90;;;;;;5076375;28;20176;-62
2021/01/03 08:14:07;;;;;;;12.07;7.13;;;4.70;99.90;;;;;;5076007;28;20176;-63
2021/01/03 08:16:35;;;;;;;14.55;8.35;;;4.40;99.90;;;;;;5076286;28;20196;-63
2021/01/03 08:19:05;;;;;;;15.25;9.15;;;4.50;99.90;;;;;;5076188;28;20230;-63
2021/01/03 08:21:35;;;;;;;15.40;8.40;;;4.30;99.90;;;;;;5076188;28;20183;-61
2021/01/03 08:24:12;;;;;;;13.52;8.43;;;4.30;99.90;;;;;;5075273;28;20731;-62
2021/01/03 08:26:53;;;;;;;10.85;7.47;;;4.30;99.90;;;;;;5075217;28;20263;-62
2021/01/03 08:29:47;;;;;;;14.27;7.50;;;4.40;99.90;;;;;;5076277;28;20524;-62
2021/01/03 08:32:19;;;;;;;15.68;8.48;;;4.10;1.00;;;;;;5076092;28;20553;-62
2021/01/03 08:34:44;;;;;;;12.35;8.80;;;4.40;91.10;;;;;;5075702;28;20261;-60
2021/01/03 08:37:20;;;;;;;14.73;8.60;;;4.20;1.00;;;;;;5075938;28;20176;-60
2021/01/03 08:39:47;;;;;;;10.90;7.55;;;4.10;1.00;;;;;;5075919;28;20180;-59
2021/01/03 08:42:24;;;;;;;13.68;8.82;;;4.20;41.90;;;;;;5075788;28;20187;-59
2021/01/03 08:44:55;;;;;;;12.93;7.70;;;4.40;99.90;;;;;;5075610;28;20180;-59
2021/01/03 08:47:36;;;;;;;14.00;8.43;;;4.50;1.00;;;;;;5075673;28;20184;-59
2021/01/03 08:50:25;;;;;;;10.80;6.93;;;4.30;1.00;;;;;;5075743;28;20193;-61
2021/01/03 08:52:57;;;;;;;12.15;8.32;;;4.30;1.00;;;;;;5075687;28;20191;-61
2021/01/03 08:55:24;;;;;;;12.45;7.72;;;4.10;59.80;;;;;;5075169;28;20196;-61
2021/01/03 08:57:56;;;;;;;16.90;8.05;;;4.30;99.90;;;;;;5075586;28;20176;-61
2021/01/03 09:00:24;;;;;;;14.00;7.85;;;4.30;99.90;;;;;;5075373;28;20180;-61
2021/01/03 09:02:54;;;;;;;14.52;8.25;;;4.30;99.90;;;;;;5075315;28;20211;-61
2021/01/03 09:05:23;;;;;;;14.00;8.23;;;4.40;99.90;;;;;;5075057;28;20172;-61
2021/01/03 09:07:51;;;;;;;9.80;6.13;;;4.40;99.90;;;;;;5074334;28;20242;-61
2021/01/03 09:10:31;;;;;;;15.48;8.90;;;4.50;99.90;;;;;;5075147;28;20518;-61
2021/01/03 09:13:22;;;;;;;12.98;7.47;;;4.60;45.60;;;;;;5075073;28;20198;-61
2021/01/03 09:16:04;;;;;;;9.95;7.18;;;4.60;74.60;;;;;;5075051;28;20232;-61
2021/01/03 09:19:09;;;;;;;10.60;7.40;;;4.60;1.00;;;;;;5075102;28;20326;-61
2021/01/03 09:21:54;;;;;;;13.80;7.95;;;4.30;11.00;;;;;;5075044;28;20165;-61
2021/01/03 09:24:23;;;;;;;11.57;6.75;;;4.30;99.90;;;;;;5075287;28;20219;-61
2021/01/03 09:26:49;;;;;;;10.82;6.32;;;4.40;1.00;;;;;;5075365;28;20183;-61
2021/01/03 09:29:20;;;;;;;14.83;9.33;;;4.20;1.00;;;;;;5075555;28;20173;-61
2021/01/03 09:32:10;;;;;;;11.23;7.20;;;4.40;39.10;;;;;;5075844;28;20180;-61
2021/01/03 09:35:01;;;;;;;11.23;7.38;;;4.50;1.00;;;;;;5074166;28;20196;-61
2021/01/03 09:37:32;;;;;;;11.50;6.10;;;4.80;1.00;;;;;;5075297;28;20210;-61
2021/01/03 09:40:26;;;;;;;9.57;6.75;;;4.80;99.90;;;;;;5075243;28;20177;-60
2021/01/03 09:43:28;;;;;;;9.70;5.80;;;4.70;99.90;;;;;;5075272;28;20169;-61
2021/01/03 09:46:22;;;;;;;39.83;23.08;;;4.70;99.90;;;;;;5075203;28;20191;-62
2021/01/03 09:48:48;;;;;;;9.23;6.93;;;4.70;99.90;;;;;;5075378;28;20180;-59
2021/01/03 09:51:38;;;;;;;8.90;5.80;;;4.70;99.90;;;;;;5075217;28;20177;-59
2021/01/03 09:54:14;;;;;;;8.75;6.35;;;4.40;1.00;;;;;;5075327;28;20295;-59
2021/01/03 09:56:41;;;;;;;11.75;7.10;;;4.60;99.90;;;;;;5075698;28;20271;-59
2021/01/03 09:59:20;;;;;;;6.15;4.75;;;4.60;1.00;;;;;;5075427;28;20172;-59
2021/01/03 10:01:49;;;;;;;9.57;6.07;;;4.40;99.90;;;;;;5074420;28;20183;-59
2021/01/03 10:04:20;;;;;;;9.45;5.68;;;4.70;99.90;;;;;;5073708;28;20569;-59
2021/01/03 10:06:51;;;;;;;8.35;5.63;;;4.80;99.90;;;;;;5086401;28;20172;-59
2021/01/03 10:09:30;;;;;;;6.57;4.78;;;4.80;1.00;;;;;;5094052;28;20180;-60
2021/01/03 10:11:57;;;;;;;11.77;6.07;;;4.60;99.90;;;;;;5091987;28;20184;-59
2021/01/03 10:14:34;;;;;;;8.82;4.80;;;4.90;1.00;;;;;;5093695;28;20205;-59
2021/01/03 10:17:26;;;;;;;8.25;4.32;;;4.90;99.90;;;;;;5093901;28;20179;-59
2021/01/03 10:19:52;;;;;;;5.40;3.75;;;4.70;1.00;;;;;;5092300;28;20278;-59
2021/01/03 10:22:34;;;;;;;4.67;3.77;;;4.50;99.90;;;;;;5093733;28;20231;-61
2021/01/03 10:25:08;;;;;;;5.72;3.90;;;4.50;99.90;;;;;;5091794;28;20600;-62
2021/01/03 10:27:33;;;;;;;5.53;3.90;;;4.70;26.10;;;;;;5091309;28;20213;-63
2021/01/03 10:29:59;;;;;;;5.80;3.63;;;4.70;1.00;;;;;;5093528;28;20270;-63
2021/01/03 10:32:25;;;;;;;5.20;3.57;;;5.00;1.00;;;;;;5093372;28;20203;-63
2021/01/03 10:34:50;;;;;;;5.35;3.95;;;5.10;99.90;;;;;;5090573;28;20210;-62
2021/01/03 10:37:16;;;;;;;6.83;4.77;;;4.90;99.90;;;;;;5092537;28;20593;-59
2021/01/03 10:39:44;;;;;;;4.07;3.50;;;5.00;99.90;;;;;;5092243;28;20203;-59
2021/01/03 10:42:11;;;;;;;4.43;3.75;;;5.00;95.30;;;;;;5090849;28;20164;-59
2021/01/03 10:44:37;;;;;;;4.65;2.95;;;5.30;99.90;;;;;;5093545;28;20631;-59
2021/01/03 10:47:03;;;;;;;5.03;4.00;;;5.30;1.00;;;;;;5093663;28;20580;-62
2021/01/03 10:49:29;;;;;;;6.55;3.92;;;5.40;1.00;;;;;;5094046;28;20180;-59
2021/01/03 10:51:54;;;;;;;7.20;4.00;;;5.30;99.90;;;;;;5097766;28;20563;-65
2021/01/03 10:54:25;;;;;;;9.80;5.40;;;5.40;1.00;;;;;;5095097;28;20182;-61
2021/01/03 10:56:53;;;;;;;4.85;3.28;;;5.40;1.00;;;;;;5095951;28;20203;-62
2021/01/03 10:59:20;;;;;;;4.07;3.40;;;5.10;1.00;;;;;;5094364;28;20172;-64
2021/01/03 11:01:46;;;;;;;3.95;3.53;;;5.10;99.90;;;;;;5094590;28;20175;-61
2021/01/03 11:04:15;;;;;;;3.17;2.25;;;5.10;1.00;;;;;;5097031;28;20187;-62
2021/01/03 11:06:43;;;;;;;5.30;2.95;;;4.80;1.00;;;;;;5096809;28;20509;-60
2021/01/03 11:09:15;;;;;;;3.20;2.50;;;4.90;99.90;;;;;;5097961;28;20192;-62
2021/01/03 11:11:43;;;;;;;4.22;2.78;;;4.80;99.90;;;;;;5096765;28;20267;-60
2021/01/03 11:14:09;;;;;;;5.53;3.55;;;4.80;1.00;;;;;;5079059;28;20195;-60
2021/01/03 11:16:38;;;;;;;2.40;2.20;;;5.00;1.00;;;;;;5095717;28;20237;-60
2021/01/03 11:19:07;;;;;;;3.60;2.35;;;5.00;99.90;;;;;;5094094;28;20184;-63
2021/01/03 11:21:33;;;;;;;4.97;3.55;;;4.90;99.90;;;;;;5094758;28;20333;-63
2021/01/03 11:23:59;;;;;;;3.10;2.42;;;5.00;1.00;;;;;;5092795;28;20184;-64
2021/01/03 11:26:36;;;;;;;4.23;2.97;;;5.20;1.00;;;;;;5088442;28;20559;-60
2021/01/03 11:29:06;;;;;;;6.20;2.53;;;5.20;99.90;;;;;;5092497;28;20524;-61
2021/01/03 11:31:38;;;;;;;4.05;2.85;;;5.00;99.90;;;;;;5092398;28;20184;-67
2021/01/03 11:34:05;;;;;;;3.70;2.63;;;4.90;1.00;;;;;;5092695;28;20307;-63
2021/01/03 11:36:32;;;;;;;2.55;2.35;;;5.00;99.90;;;;;;5092549;28;20190;-63
2021/01/03 11:39:08;;;;;;;4.13;2.40;;;5.10;99.90;;;;;;5092720;28;20179;-60
2021/01/03 11:41:35;;;;;;;3.17;2.15;;;5.40;1.00;;;;;;5093106;28;20272;-62
2021/01/03 11:44:02;;;;;;;3.67;3.10;;;5.10;1.00;;;;;;5093155;28;20196;-64
2021/01/03 11:46:28;;;;;;;3.72;2.65;;;5.10;1.00;;;;;;5093045;28;20547;-62
2021/01/03 11:48:54;;;;;;;3.53;2.40;;;5.20;85.50;;;;;;5092089;28;20210;-61
2021/01/03 11:51:20;;;;;;;3.55;2.38;;;5.20;1.00;;;;;;5092634;28;20180;-61
2021/01/03 11:53:46;;;;;;;3.75;2.70;;;5.30;99.90;;;;;;5092789;28;20172;-62
2021/01/03 11:56:17;;;;;;;2.78;1.92;;;5.20;99.90;;;;;;5093239;28;20200;-64
2021/01/03 11:58:43;;;;;;;4.30;2.75;;;5.30;1.00;;;;;;5094710;28;20624;-62
2021/01/03 12:01:09;;;;;;;2.77;2.10;;;5.20;99.90;;;;;;5096108;28;20191;-64
2021/01/03 12:03:35;;;;;;;3.00;2.50;;;5.40;1.00;;;;;;5094907;28;20430;-63
2021/01/03 12:06:01;;;;;;;2.83;2.10;;;5.00;1.00;;;;;;5096638;28;20202;-62
2021/01/03 12:08:27;;;;;;;2.47;2.28;;;4.90;1.00;;;;;;5096419;28;20180;-63
2021/01/03 12:10:53;;;;;;;4.90;2.63;;;4.90;99.90;;;;;;5095125;28;20564;-60
2021/01/03 12:13:18;;;;;;;2.00;1.73;;;5.10;99.90;;;;;;5095667;28;20226;-59
2021/01/03 12:15:44;;;;;;;3.67;2.60;;;5.00;1.00;;;;;;5096268;28;20503;-60
2021/01/03 12:18:10;;;;;;;4.53;2.70;;;4.90;1.00;;;;;;5096180;28;20198;-60
2021/01/03 12:20:36;;;;;;;4.87;2.77;;;5.00;1.00;;;;;;5095861;28;20179;-60
2021/01/03 12:23:05;;;;;;;2.78;2.38;;;4.90;1.00;;;;;;5095351;28;20469;-60
2021/01/03 12:25:31;;;;;;;3.08;2.28;;;5.10;1.00;;;;;;5095750;28;20206;-60
2021/01/03 12:27:56;;;;;;;4.13;3.47;;;5.10;99.90;;;;;;5094785;28;20572;-60
2021/01/03 12:30:23;;;;;;;2.83;2.53;;;4.90;99.90;;;;;;5095493;28;20430;-60
2021/01/03 12:32:49;;;;;;;4.47;2.50;;;5.00;99.90;;;;;;5094599;28;20192;-60
2021/01/03 12:35:15;;;;;;;3.37;2.50;;;5.00;99.90;;;;;;5095377;28;20195;-60
2021/01/03 12:37:41;;;;;;;4.22;2.80;;;5.20;99.90;;;;;;5095502;28;20425;-61
2021/01/03 12:40:09;;;;;;;3.20;2.30;;;5.20;99.90;;;;;;5095631;28;20183;-61
2021/01/03 12:42:36;;;;;;;4.32;2.63;;;5.00;99.90;;;;;;5095562;28;20830;-65
2021/01/03 12:45:05;;;;;;;3.55;1.98;;;5.00;1.00;;;;;;5094361;28;20482;-62
2021/01/03 12:47:32;;;;;;;4.00;2.85;;;5.10;1.00;;;;;;5095014;28;20180;-62
2021/01/03 12:49:59;;;;;;;4.78;2.60;;;5.20;1.00;;;;;;5090458;28;20214;-62
2021/01/03 12:52:25;;;;;;;4.20;3.80;;;5.00;1.00;;;;;;5094036;28;20191;-65
2021/01/03 12:54:50;;;;;;;4.00;2.80;;;5.00;99.90;;;;;;5090176;28;20196;-65
2021/01/03 12:57:16;;;;;;;1.90;1.70;;;4.90;99.90;;;;;;5095774;28;20460;-66
2021/01/03 12:59:42;;;;;;;4.70;2.47;;;5.00;99.90;;;;;;5079546;28;20451;-64
2021/01/03 13:02:08;;;;;;;6.55;3.55;;;5.00;98.10;;;;;;5086869;28;20820;-64
2021/01/03 13:04:34;;;;;;;2.55;1.85;;;4.90;1.00;;;;;;5096318;28;20191;-64
2021/01/03 13:07:00;;;;;;;3.90;2.27;;;4.90;99.90;;;;;;5096288;28;20190;-64
2021/01/03 13:09:26;;;;;;;3.55;2.85;;;5.00;83.60;;;;;;5094955;28;20422;-64
2021/01/03 13:11:53;;;;;;;4.00;2.78;;;5.00;1.00;;;;;;5095698;28;20184;-63
2021/01/03 13:14:19;;;;;;;3.15;2.75;;;5.00;71.90;;;;;;5094068;28;20202;-61
2021/01/03 13:16:46;;;;;;;3.72;2.60;;;5.00;1.00;;;;;;5094718;28;20625;-59